sensor_id;sensor_type;location;lat;lon;timestamp;P1;durP1;ratioP1;P2;durP2;ratioP2
32812;SDS011;19162;48.254;11.454;2024-03-29T00:02:05;1.15;;;1.05;;
32812;SDS011;19162;48.254;11.454;2024-03-29T00:05:05;2.67;;;1.13;;
32812;SDS011;19162;48.254;11.454;2024-03-29T00:08:07;1.55;;;1.45;;
32812;SDS011;19162;48.254;11.454;2024-03-29T00:11:07;1.70;;;1.60;;
32812;SDS011;19162;48.254;11.454;2024-03-29T00:14:07;1.60;;;1.50;;
32812;SDS011;19162;48.254;11.454;2024-03-29T00:17:07;2.40;;;1.40;;
32812;SDS011;19162;48.254;11.454;2024-03-29T00:20:08;1.80;;;1.10;;
32812;SDS011;19162;48.254;11.454;2024-03-29T00:23:08;1.30;;;1.20;;
32812;SDS011;19162;48.254;11.454;2024-03-29T00:26:08;1.30;;;1.20;;
32812;SDS011;19162;48.254;11.454;2024-03-29T00:29:08;2.03;;;1.20;;
32812;SDS011;19162;48.254;11.454;2024-03-29T00:32:08;1.55;;;1.10;;
32812;SDS011;19162;48.254;11.454;2024-03-29T00:35:09;1.00;;;0.93;;
32812;SDS011;19162;48.254;11.454;2024-03-29T00:38:09;2.03;;;1.67;;
32812;SDS011;19162;48.254;11.454;2024-03-29T00:41:09;1.60;;;1.05;;
32812;SDS011;19162;48.254;11.454;2024-03-29T00:44:09;1.90;;;1.07;;
32812;SDS011;19162;48.254;11.454;2024-03-29T00:47:09;1.13;;;0.70;;
32812;SDS011;19162;48.254;11.454;2024-03-29T00:50:10;1.15;;;1.05;;
32812;SDS011;19162;48.254;11.454;2024-03-29T00:53:10;1.27;;;0.80;;
32812;SDS011;19162;48.254;11.454;2024-03-29T00:56:10;0.88;;;0.88;;
32812;SDS011;19162;48.254;11.454;2024-03-29T00:59:10;1.10;;;0.82;;
32812;SDS011;19162;48.254;11.454;2024-03-29T01:02:11;0.80;;;0.80;;
32812;SDS011;19162;48.254;11.454;2024-03-29T01:05:11;1.30;;;0.70;;
32812;SDS011;19162;48.254;11.454;2024-03-29T01:08:11;0.60;;;0.60;;
32812;SDS011;19162;48.254;11.454;2024-03-29T01:11:11;0.55;;;0.43;;
32812;SDS011;19162;48.254;11.454;2024-03-29T01:14:12;0.60;;;0.60;;
32812;SDS011;19162;48.254;11.454;2024-03-29T01:17:12;0.85;;;0.70;;
32812;SDS011;19162;48.254;11.454;2024-03-29T01:20:12;0.88;;;0.70;;
32812;SDS011;19162;48.254;11.454;2024-03-29T01:23:12;0.60;;;0.60;;
32812;SDS011;19162;48.254;11.454;2024-03-29T01:26:12;0.40;;;0.40;;
32812;SDS011;19162;48.254;11.454;2024-03-29T01:29:13;1.42;;;0.70;;
32812;SDS011;19162;48.254;11.454;2024-03-29T01:32:13;0.73;;;0.73;;
32812;SDS011;19162;48.254;11.454;2024-03-29T01:35:13;0.70;;;0.55;;
32812;SDS011;19162;48.254;11.454;2024-03-29T01:38:14;1.10;;;0.70;;
32812;SDS011;19162;48.254;11.454;2024-03-29T01:41:14;0.90;;;0.60;;
32812;SDS011;19162;48.254;11.454;2024-03-29T01:44:15;1.23;;;0.77;;
32812;SDS011;19162;48.254;11.454;2024-03-29T01:47:16;0.93;;;0.80;;
32812;SDS011;19162;48.254;11.454;2024-03-29T01:50:17;2.03;;;0.90;;
32812;SDS011;19162;48.254;11.454;2024-03-29T01:53:18;0.70;;;0.60;;
32812;SDS011;19162;48.254;11.454;2024-03-29T01:56:19;1.63;;;0.50;;
32812;SDS011;19162;48.254;11.454;2024-03-29T01:59:19;0.75;;;0.60;;
32812;SDS011;19162;48.254;11.454;2024-03-29T02:02:20;0.68;;;0.68;;
32812;SDS011;19162;48.254;11.454;2024-03-29T02:05:20;0.93;;;0.55;;
32812;SDS011;19162;48.254;11.454;2024-03-29T02:08:20;0.93;;;0.38;;
32812;SDS011;19162;48.254;11.454;2024-03-29T02:11:21;0.83;;;0.40;;
32812;SDS011;19162;48.254;11.454;2024-03-29T02:14:21;1.40;;;0.40;;
32812;SDS011;19162;48.254;11.454;2024-03-29T02:17:21;1.10;;;0.57;;
32812;SDS011;19162;48.254;11.454;2024-03-29T02:20:21;2.20;;;0.50;;
32812;SDS011;19162;48.254;11.454;2024-03-29T02:23:26;0.50;;;0.40;;
32812;SDS011;19162;48.254;11.454;2024-03-29T02:26:26;0.50;;;0.50;;
32812;SDS011;19162;48.254;11.454;2024-03-29T02:29:31;1.55;;;0.40;;
32812;SDS011;19162;48.254;11.454;2024-03-29T02:32:31;0.98;;;0.63;;
32812;SDS011;19162;48.254;11.454;2024-03-29T02:35:31;0.73;;;0.60;;
32812;SDS011;19162;48.254;11.454;2024-03-29T02:38:31;1.20;;;0.80;;
32812;SDS011;19162;48.254;11.454;2024-03-29T02:41:32;0.70;;;0.70;;
32812;SDS011;19162;48.254;11.454;2024-03-29T02:44:32;0.47;;;0.47;;
32812;SDS011;19162;48.254;11.454;2024-03-29T02:47:32;0.77;;;0.75;;
32812;SDS011;19162;48.254;11.454;2024-03-29T02:50:32;2.00;;;0.80;;
32812;SDS011;19162;48.254;11.454;2024-03-29T02:53:33;0.98;;;0.93;;
32812;SDS011;19162;48.254;11.454;2024-03-29T02:56:33;0.80;;;0.60;;
32812;SDS011;19162;48.254;11.454;2024-03-29T02:59:33;0.65;;;0.65;;
32812;SDS011;19162;48.254;11.454;2024-03-29T03:02:37;0.63;;;0.47;;
32812;SDS011;19162;48.254;11.454;2024-03-29T03:05:37;0.43;;;0.40;;
32812;SDS011;19162;48.254;11.454;2024-03-29T03:08:37;2.25;;;0.73;;
32812;SDS011;19162;48.254;11.454;2024-03-29T03:11:56;1.23;;;0.73;;
32812;SDS011;19162;48.254;11.454;2024-03-29T03:14:56;1.35;;;0.40;;
32812;SDS011;19162;48.254;11.454;2024-03-29T03:17:57;0.50;;;0.50;;
32812;SDS011;19162;48.254;11.454;2024-03-29T03:20:57;2.28;;;0.90;;
32812;SDS011;19162;48.254;11.454;2024-03-29T03:23:57;0.88;;;0.77;;
32812;SDS011;19162;48.254;11.454;2024-03-29T03:26:58;0.60;;;0.60;;
32812;SDS011;19162;48.254;11.454;2024-03-29T03:29:58;0.52;;;0.50;;
32812;SDS011;19162;48.254;11.454;2024-03-29T03:32:58;0.55;;;0.55;;
32812;SDS011;19162;48.254;11.454;2024-03-29T03:35:58;0.70;;;0.60;;
32812;SDS011;19162;48.254;11.454;2024-03-29T03:38:58;0.80;;;0.70;;
32812;SDS011;19162;48.254;11.454;2024-03-29T03:41:58;0.60;;;0.60;;
32812;SDS011;19162;48.254;11.454;2024-03-29T03:44:59;0.85;;;0.75;;
32812;SDS011;19162;48.254;11.454;2024-03-29T03:47:59;0.63;;;0.55;;
32812;SDS011;19162;48.254;11.454;2024-03-29T03:50:59;0.77;;;0.63;;
32812;SDS011;19162;48.254;11.454;2024-03-29T03:53:59;0.68;;;0.68;;
32812;SDS011;19162;48.254;11.454;2024-03-29T03:56:59;1.25;;;0.70;;
32812;SDS011;19162;48.254;11.454;2024-03-29T04:00:00;0.70;;;0.70;;
32812;SDS011;19162;48.254;11.454;2024-03-29T04:03:00;0.77;;;0.60;;
32812;SDS011;19162;48.254;11.454;2024-03-29T04:06:03;0.50;;;0.50;;
32812;SDS011;19162;48.254;11.454;2024-03-29T04:09:03;1.15;;;0.70;;
32812;SDS011;19162;48.254;11.454;2024-03-29T04:12:04;0.65;;;0.50;;
32812;SDS011;19162;48.254;11.454;2024-03-29T04:15:04;1.15;;;0.50;;
32812;SDS011;19162;48.254;11.454;2024-03-29T04:18:05;0.77;;;0.60;;
32812;SDS011;19162;48.254;11.454;2024-03-29T04:21:05;0.80;;;0.73;;
32812;SDS011;19162;48.254;11.454;2024-03-29T04:24:05;0.55;;;0.55;;
32812;SDS011;19162;48.254;11.454;2024-03-29T04:27:08;0.50;;;0.50;;
32812;SDS011;19162;48.254;11.454;2024-03-29T04:30:09;0.60;;;0.60;;
32812;SDS011;19162;48.254;11.454;2024-03-29T04:33:09;1.13;;;1.02;;
32812;SDS011;19162;48.254;11.454;2024-03-29T04:36:09;0.70;;;0.70;;
32812;SDS011;19162;48.254;11.454;2024-03-29T04:39:09;0.82;;;0.82;;
32812;SDS011;19162;48.254;11.454;2024-03-29T04:42:10;0.88;;;0.70;;
32812;SDS011;19162;48.254;11.454;2024-03-29T04:45:10;0.57;;;0.57;;
32812;SDS011;19162;48.254;11.454;2024-03-29T04:48:11;0.90;;;0.73;;
32812;SDS011;19162;48.254;11.454;2024-03-29T04:51:11;0.70;;;0.70;;
32812;SDS011;19162;48.254;11.454;2024-03-29T04:54:11;1.25;;;0.77;;
32812;SDS011;19162;48.254;11.454;2024-03-29T04:57:11;0.65;;;0.65;;
32812;SDS011;19162;48.254;11.454;2024-03-29T05:00:13;0.70;;;0.60;;
32812;SDS011;19162;48.254;11.454;2024-03-29T05:03:13;1.17;;;1.00;;
32812;SDS011;19162;48.254;11.454;2024-03-29T05:06:13;0.68;;;0.68;;
32812;SDS011;19162;48.254;11.454;2024-03-29T05:09:13;0.70;;;0.70;;
32812;SDS011;19162;48.254;11.454;2024-03-29T05:12:13;0.73;;;0.73;;
32812;SDS011;19162;48.254;11.454;2024-03-29T05:15:14;0.70;;;0.70;;
32812;SDS011;19162;48.254;11.454;2024-03-29T05:18:15;0.90;;;0.90;;
32812;SDS011;19162;48.254;11.454;2024-03-29T05:21:15;0.70;;;0.70;;
32812;SDS011;19162;48.254;11.454;2024-03-29T05:24:15;0.80;;;0.80;;
32812;SDS011;19162;48.254;11.454;2024-03-29T05:27:16;0.75;;;0.75;;
32812;SDS011;19162;48.254;11.454;2024-03-29T05:30:16;0.80;;;0.80;;
32812;SDS011;19162;48.254;11.454;2024-03-29T05:33:17;0.90;;;0.90;;
32812;SDS011;19162;48.254;11.454;2024-03-29T05:36:17;0.70;;;0.70;;
32812;SDS011;19162;48.254;11.454;2024-03-29T05:39:18;0.98;;;0.82;;
32812;SDS011;19162;48.254;11.454;2024-03-29T05:42:19;1.40;;;0.95;;
32812;SDS011;19162;48.254;11.454;2024-03-29T05:48:23;0.60;;;0.60;;
32812;SDS011;19162;48.254;11.454;2024-03-29T05:51:23;2.47;;;1.07;;
32812;SDS011;19162;48.254;11.454;2024-03-29T05:54:23;0.60;;;0.60;;
32812;SDS011;19162;48.254;11.454;2024-03-29T05:57:24;1.08;;;0.90;;
32812;SDS011;19162;48.254;11.454;2024-03-29T06:00:30;0.80;;;0.80;;
32812;SDS011;19162;48.254;11.454;2024-03-29T06:03:32;0.77;;;0.77;;
32812;SDS011;19162;48.254;11.454;2024-03-29T06:06:32;0.83;;;0.83;;
32812;SDS011;19162;48.254;11.454;2024-03-29T06:09:32;0.85;;;0.85;;
32812;SDS011;19162;48.254;11.454;2024-03-29T06:12:33;0.73;;;0.73;;
32812;SDS011;19162;48.254;11.454;2024-03-29T06:15:34;1.60;;;0.65;;
32812;SDS011;19162;48.254;11.454;2024-03-29T06:18:53;1.83;;;0.75;;
32812;SDS011;19162;48.254;11.454;2024-03-29T06:21:53;0.90;;;0.90;;
32812;SDS011;19162;48.254;11.454;2024-03-29T06:24:54;1.50;;;0.85;;
32812;SDS011;19162;48.254;11.454;2024-03-29T06:27:54;0.82;;;0.60;;
32812;SDS011;19162;48.254;11.454;2024-03-29T06:30:54;1.33;;;0.90;;
32812;SDS011;19162;48.254;11.454;2024-03-29T06:33:55;0.82;;;0.80;;
32812;SDS011;19162;48.254;11.454;2024-03-29T06:36:55;1.02;;;0.80;;
32812;SDS011;19162;48.254;11.454;2024-03-29T06:39:55;1.00;;;0.90;;
32812;SDS011;19162;48.254;11.454;2024-03-29T06:42:55;0.77;;;0.77;;
32812;SDS011;19162;48.254;11.454;2024-03-29T06:45:58;0.80;;;0.80;;
32812;SDS011;19162;48.254;11.454;2024-03-29T06:48:59;1.25;;;0.95;;
32812;SDS011;19162;48.254;11.454;2024-03-29T06:51:59;1.73;;;0.80;;
32812;SDS011;19162;48.254;11.454;2024-03-29T06:55:01;1.48;;;1.02;;
32812;SDS011;19162;48.254;11.454;2024-03-29T06:58:01;0.80;;;0.80;;
32812;SDS011;19162;48.254;11.454;2024-03-29T07:01:01;1.00;;;0.90;;
32812;SDS011;19162;48.254;11.454;2024-03-29T07:04:01;1.00;;;0.90;;
32812;SDS011;19162;48.254;11.454;2024-03-29T07:07:02;1.27;;;0.97;;
32812;SDS011;19162;48.254;11.454;2024-03-29T07:10:02;2.00;;;0.80;;
32812;SDS011;19162;48.254;11.454;2024-03-29T07:13:02;0.87;;;0.87;;
32812;SDS011;19162;48.254;11.454;2024-03-29T07:16:02;0.70;;;0.70;;
32812;SDS011;19162;48.254;11.454;2024-03-29T07:19:03;0.60;;;0.60;;
32812;SDS011;19162;48.254;11.454;2024-03-29T07:22:03;2.78;;;0.80;;
32812;SDS011;19162;48.254;11.454;2024-03-29T07:25:04;0.70;;;0.70;;
32812;SDS011;19162;48.254;11.454;2024-03-29T07:28:04;0.60;;;0.60;;
32812;SDS011;19162;48.254;11.454;2024-03-29T07:31:05;2.53;;;0.70;;
32812;SDS011;19162;48.254;11.454;2024-03-29T07:34:06;0.90;;;0.82;;
32812;SDS011;19162;48.254;11.454;2024-03-29T07:37:06;1.00;;;0.70;;
32812;SDS011;19162;48.254;11.454;2024-03-29T07:40:08;0.50;;;0.50;;
32812;SDS011;19162;48.254;11.454;2024-03-29T07:43:08;0.60;;;0.60;;
32812;SDS011;19162;48.254;11.454;2024-03-29T07:46:09;0.57;;;0.57;;
32812;SDS011;19162;48.254;11.454;2024-03-29T07:49:09;0.90;;;0.68;;
32812;SDS011;19162;48.254;11.454;2024-03-29T07:52:09;0.73;;;0.70;;
32812;SDS011;19162;48.254;11.454;2024-03-29T07:55:10;0.57;;;0.50;;
32812;SDS011;19162;48.254;11.454;2024-03-29T07:58:10;0.60;;;0.60;;
32812;SDS011;19162;48.254;11.454;2024-03-29T08:01:17;0.60;;;0.60;;
32812;SDS011;19162;48.254;11.454;2024-03-29T08:04:17;0.60;;;0.60;;
32812;SDS011;19162;48.254;11.454;2024-03-29T08:07:17;0.77;;;0.77;;
32812;SDS011;19162;48.254;11.454;2024-03-29T08:10:17;0.60;;;0.60;;
32812;SDS011;19162;48.254;11.454;2024-03-29T08:13:18;0.73;;;0.73;;
32812;SDS011;19162;48.254;11.454;2024-03-29T08:16:20;0.70;;;0.70;;
32812;SDS011;19162;48.254;11.454;2024-03-29T08:19:20;1.02;;;0.60;;
32812;SDS011;19162;48.254;11.454;2024-03-29T08:22:20;0.75;;;0.75;;
32812;SDS011;19162;48.254;11.454;2024-03-29T08:25:20;1.17;;;0.60;;
32812;SDS011;19162;48.254;11.454;2024-03-29T08:28:21;1.33;;;0.73;;
32812;SDS011;19162;48.254;11.454;2024-03-29T08:31:22;0.73;;;0.73;;
32812;SDS011;19162;48.254;11.454;2024-03-29T08:34:22;0.65;;;0.55;;
32812;SDS011;19162;48.254;11.454;2024-03-29T08:37:22;0.50;;;0.50;;
32812;SDS011;19162;48.254;11.454;2024-03-29T08:40:22;1.15;;;0.50;;
32812;SDS011;19162;48.254;11.454;2024-03-29T08:43:24;1.70;;;0.70;;
32812;SDS011;19162;48.254;11.454;2024-03-29T08:46:24;0.50;;;0.40;;
32812;SDS011;19162;48.254;11.454;2024-03-29T08:49:24;3.77;;;1.17;;
32812;SDS011;19162;48.254;11.454;2024-03-29T08:52:24;0.60;;;0.60;;
32812;SDS011;19162;48.254;11.454;2024-03-29T08:55:24;1.30;;;0.90;;
32812;SDS011;19162;48.254;11.454;2024-03-29T08:58:26;0.88;;;0.50;;
32812;SDS011;19162;48.254;11.454;2024-03-29T09:01:26;2.00;;;0.50;;
32812;SDS011;19162;48.254;11.454;2024-03-29T09:04:27;0.80;;;0.47;;
32812;SDS011;19162;48.254;11.454;2024-03-29T09:07:27;2.80;;;0.68;;
32812;SDS011;19162;48.254;11.454;2024-03-29T09:10:27;0.60;;;0.50;;
32812;SDS011;19162;48.254;11.454;2024-03-29T09:13:28;1.65;;;0.50;;
32812;SDS011;19162;48.254;11.454;2024-03-29T09:16:28;2.23;;;0.70;;
32812;SDS011;19162;48.254;11.454;2024-03-29T09:19:30;0.68;;;0.43;;
32812;SDS011;19162;48.254;11.454;2024-03-29T09:22:31;1.13;;;0.70;;
32812;SDS011;19162;48.254;11.454;2024-03-29T09:25:31;1.85;;;0.70;;
32812;SDS011;19162;48.254;11.454;2024-03-29T09:28:32;1.35;;;0.90;;
32812;SDS011;19162;48.254;11.454;2024-03-29T09:31:34;0.77;;;0.57;;
32812;SDS011;19162;48.254;11.454;2024-03-29T09:34:35;0.60;;;0.52;;
32812;SDS011;19162;48.254;11.454;2024-03-29T09:37:35;0.50;;;0.50;;
32812;SDS011;19162;48.254;11.454;2024-03-29T09:40:36;0.73;;;0.70;;
32812;SDS011;19162;48.254;11.454;2024-03-29T09:43:36;1.48;;;0.73;;
32812;SDS011;19162;48.254;11.454;2024-03-29T09:46:37;0.75;;;0.60;;
32812;SDS011;19162;48.254;11.454;2024-03-29T09:49:39;0.70;;;0.60;;
32812;SDS011;19162;48.254;11.454;2024-03-29T09:52:40;0.63;;;0.50;;
32812;SDS011;19162;48.254;11.454;2024-03-29T09:55:40;3.37;;;1.43;;
32812;SDS011;19162;48.254;11.454;2024-03-29T09:58:40;1.20;;;1.10;;
32812;SDS011;19162;48.254;11.454;2024-03-29T10:01:41;0.70;;;0.70;;
32812;SDS011;19162;48.254;11.454;2024-03-29T10:04:41;0.93;;;0.87;;
32812;SDS011;19162;48.254;11.454;2024-03-29T10:07:42;0.90;;;0.70;;
32812;SDS011;19162;48.254;11.454;2024-03-29T10:10:42;0.50;;;0.50;;
32812;SDS011;19162;48.254;11.454;2024-03-29T10:13:43;0.87;;;0.67;;
32812;SDS011;19162;48.254;11.454;2024-03-29T10:16:45;0.88;;;0.60;;
32812;SDS011;19162;48.254;11.454;2024-03-29T10:19:45;1.70;;;0.90;;
32812;SDS011;19162;48.254;11.454;2024-03-29T10:22:46;1.77;;;0.82;;
32812;SDS011;19162;48.254;11.454;2024-03-29T10:25:46;1.47;;;1.10;;
32812;SDS011;19162;48.254;11.454;2024-03-29T10:28:47;1.50;;;1.02;;
32812;SDS011;19162;48.254;11.454;2024-03-29T10:31:47;0.95;;;0.90;;
32812;SDS011;19162;48.254;11.454;2024-03-29T10:34:49;1.47;;;1.13;;
32812;SDS011;19162;48.254;11.454;2024-03-29T10:37:49;1.37;;;1.20;;
32812;SDS011;19162;48.254;11.454;2024-03-29T10:40:52;1.10;;;0.90;;
32812;SDS011;19162;48.254;11.454;2024-03-29T10:43:52;0.95;;;0.90;;
32812;SDS011;19162;48.254;11.454;2024-03-29T10:46:54;1.48;;;0.93;;
32812;SDS011;19162;48.254;11.454;2024-03-29T10:49:55;4.22;;;0.98;;
32812;SDS011;19162;48.254;11.454;2024-03-29T10:52:56;1.88;;;1.08;;
32812;SDS011;19162;48.254;11.454;2024-03-29T10:56:00;1.70;;;1.00;;
32812;SDS011;19162;48.254;11.454;2024-03-29T10:59:01;2.73;;;0.97;;
32812;SDS011;19162;48.254;11.454;2024-03-29T11:02:10;1.70;;;1.02;;
32812;SDS011;19162;48.254;11.454;2024-03-29T11:05:12;1.10;;;0.68;;
32812;SDS011;19162;48.254;11.454;2024-03-29T11:08:14;0.82;;;0.80;;
32812;SDS011;19162;48.254;11.454;2024-03-29T11:11:16;1.10;;;0.90;;
32812;SDS011;19162;48.254;11.454;2024-03-29T11:14:22;1.13;;;0.85;;
32812;SDS011;19162;48.254;11.454;2024-03-29T11:17:23;3.42;;;1.23;;
32812;SDS011;19162;48.254;11.454;2024-03-29T11:20:24;1.30;;;1.10;;
32812;SDS011;19162;48.254;11.454;2024-03-29T11:23:33;1.90;;;1.13;;
32812;SDS011;19162;48.254;11.454;2024-03-29T11:26:33;1.07;;;0.97;;
32812;SDS011;19162;48.254;11.454;2024-03-29T11:29:34;1.00;;;0.90;;
32812;SDS011;19162;48.254;11.454;2024-03-29T11:32:38;1.45;;;0.85;;
32812;SDS011;19162;48.254;11.454;2024-03-29T11:35:42;1.35;;;0.88;;
32812;SDS011;19162;48.254;11.454;2024-03-29T11:38:42;1.42;;;0.70;;
32812;SDS011;19162;48.254;11.454;2024-03-29T11:41:46;2.45;;;0.73;;
32812;SDS011;19162;48.254;11.454;2024-03-29T11:44:46;0.88;;;0.88;;
32812;SDS011;19162;48.254;11.454;2024-03-29T11:47:46;4.95;;;1.98;;
32812;SDS011;19162;48.254;11.454;2024-03-29T11:50:47;1.58;;;1.13;;
32812;SDS011;19162;48.254;11.454;2024-03-29T11:53:47;1.83;;;1.73;;
32812;SDS011;19162;48.254;11.454;2024-03-29T11:56:47;2.53;;;1.77;;
32812;SDS011;19162;48.254;11.454;2024-03-29T11:59:48;1.33;;;0.80;;
32812;SDS011;19162;48.254;11.454;2024-03-29T12:02:48;1.15;;;1.05;;
32812;SDS011;19162;48.254;11.454;2024-03-29T12:05:51;1.37;;;1.13;;
32812;SDS011;19162;48.254;11.454;2024-03-29T12:08:51;2.20;;;1.02;;
32812;SDS011;19162;48.254;11.454;2024-03-29T12:11:53;4.70;;;4.30;;
32812;SDS011;19162;48.254;11.454;2024-03-29T12:14:53;2.13;;;1.00;;
32812;SDS011;19162;48.254;11.454;2024-03-29T12:17:54;1.20;;;0.90;;
32812;SDS011;19162;48.254;11.454;2024-03-29T12:20:55;1.38;;;1.08;;
32812;SDS011;19162;48.254;11.454;2024-03-29T12:23:55;1.77;;;1.23;;
32812;SDS011;19162;48.254;11.454;2024-03-29T12:26:55;2.10;;;1.05;;
32812;SDS011;19162;48.254;11.454;2024-03-29T12:29:55;1.30;;;1.20;;
32812;SDS011;19162;48.254;11.454;2024-03-29T12:33:03;1.70;;;1.42;;
32812;SDS011;19162;48.254;11.454;2024-03-29T12:36:04;2.45;;;1.85;;
32812;SDS011;19162;48.254;11.454;2024-03-29T12:39:05;1.10;;;1.10;;
32812;SDS011;19162;48.254;11.454;2024-03-29T12:42:05;2.20;;;1.30;;
32812;SDS011;19162;48.254;11.454;2024-03-29T12:45:06;2.28;;;1.08;;
32812;SDS011;19162;48.254;11.454;2024-03-29T12:48:14;1.40;;;1.20;;
32812;SDS011;19162;48.254;11.454;2024-03-29T12:51:14;2.53;;;1.50;;
32812;SDS011;19162;48.254;11.454;2024-03-29T12:54:19;1.83;;;1.00;;
32812;SDS011;19162;48.254;11.454;2024-03-29T12:57:19;1.55;;;1.10;;
32812;SDS011;19162;48.254;11.454;2024-03-29T13:00:20;1.60;;;1.00;;
32812;SDS011;19162;48.254;11.454;2024-03-29T13:03:20;1.20;;;1.08;;
32812;SDS011;19162;48.254;11.454;2024-03-29T13:06:20;1.13;;;1.03;;
32812;SDS011;19162;48.254;11.454;2024-03-29T13:09:21;2.67;;;0.97;;
32812;SDS011;19162;48.254;11.454;2024-03-29T13:12:21;2.07;;;1.30;;
32812;SDS011;19162;48.254;11.454;2024-03-29T13:15:22;3.57;;;1.10;;
32812;SDS011;19162;48.254;11.454;2024-03-29T13:18:24;6.10;;;1.00;;
32812;SDS011;19162;48.254;11.454;2024-03-29T13:21:25;1.88;;;1.10;;
32812;SDS011;19162;48.254;11.454;2024-03-29T13:24:25;1.90;;;0.93;;
32812;SDS011;19162;48.254;11.454;2024-03-29T13:27:25;1.48;;;1.20;;
32812;SDS011;19162;48.254;11.454;2024-03-29T13:30:26;2.00;;;0.90;;
32812;SDS011;19162;48.254;11.454;2024-03-29T13:33:26;0.82;;;0.75;;
32812;SDS011;19162;48.254;11.454;2024-03-29T13:36:26;1.30;;;1.08;;
32812;SDS011;19162;48.254;11.454;2024-03-29T13:39:26;1.35;;;0.95;;
32812;SDS011;19162;48.254;11.454;2024-03-29T13:42:26;1.30;;;1.20;;
32812;SDS011;19162;48.254;11.454;2024-03-29T13:45:27;1.15;;;0.85;;
32812;SDS011;19162;48.254;11.454;2024-03-29T13:48:27;1.40;;;1.10;;
32812;SDS011;19162;48.254;11.454;2024-03-29T13:51:28;1.60;;;1.40;;
32812;SDS011;19162;48.254;11.454;2024-03-29T13:54:28;0.77;;;0.77;;
32812;SDS011;19162;48.254;11.454;2024-03-29T13:57:30;1.40;;;1.30;;
32812;SDS011;19162;48.254;11.454;2024-03-29T14:00:31;1.38;;;0.98;;
32812;SDS011;19162;48.254;11.454;2024-03-29T14:03:32;1.63;;;1.13;;
32812;SDS011;19162;48.254;11.454;2024-03-29T14:06:32;1.08;;;0.93;;
32812;SDS011;19162;48.254;11.454;2024-03-29T14:09:33;1.33;;;0.90;;
32812;SDS011;19162;48.254;11.454;2024-03-29T14:12:34;0.63;;;0.63;;
32812;SDS011;19162;48.254;11.454;2024-03-29T14:15:34;0.30;;;0.30;;
32812;SDS011;19162;48.254;11.454;2024-03-29T14:18:34;0.28;;;0.20;;
32812;SDS011;19162;48.254;11.454;2024-03-29T14:21:37;0.40;;;0.30;;
32812;SDS011;19162;48.254;11.454;2024-03-29T14:24:37;0.43;;;0.20;;
32812;SDS011;19162;48.254;11.454;2024-03-29T14:27:39;1.25;;;0.30;;
32812;SDS011;19162;48.254;11.454;2024-03-29T14:30:54;0.28;;;0.28;;
32812;SDS011;19162;48.254;11.454;2024-03-29T14:33:54;0.47;;;0.30;;
32812;SDS011;19162;48.254;11.454;2024-03-29T14:36:54;0.30;;;0.30;;
32812;SDS011;19162;48.254;11.454;2024-03-29T14:39:55;0.17;;;0.17;;
32812;SDS011;19162;48.254;11.454;2024-03-29T14:42:55;1.80;;;0.28;;
32812;SDS011;19162;48.254;11.454;2024-03-29T14:45:57;0.30;;;0.20;;
32812;SDS011;19162;48.254;11.454;2024-03-29T14:48:59;0.20;;;0.20;;
32812;SDS011;19162;48.254;11.454;2024-03-29T14:51:59;1.75;;;0.20;;
32812;SDS011;19162;48.254;11.454;2024-03-29T14:55:00;0.32;;;0.20;;
32812;SDS011;19162;48.254;11.454;2024-03-29T14:58:00;0.20;;;0.20;;
32812;SDS011;19162;48.254;11.454;2024-03-29T15:01:00;0.13;;;0.10;;
32812;SDS011;19162;48.254;11.454;2024-03-29T15:04:00;0.25;;;0.20;;
32812;SDS011;19162;48.254;11.454;2024-03-29T15:07:00;0.20;;;0.10;;
32812;SDS011;19162;48.254;11.454;2024-03-29T15:10:00;0.20;;;0.20;;
32812;SDS011;19162;48.254;11.454;2024-03-29T15:13:03;0.30;;;0.20;;
32812;SDS011;19162;48.254;11.454;2024-03-29T15:16:04;0.20;;;0.20;;
32812;SDS011;19162;48.254;11.454;2024-03-29T15:19:04;0.25;;;0.20;;
32812;SDS011;19162;48.254;11.454;2024-03-29T15:22:04;2.97;;;0.30;;
32812;SDS011;19162;48.254;11.454;2024-03-29T15:25:05;0.10;;;0.10;;
32812;SDS011;19162;48.254;11.454;2024-03-29T15:28:05;4.13;;;0.30;;
32812;SDS011;19162;48.254;11.454;2024-03-29T15:31:11;1.27;;;0.40;;
32812;SDS011;19162;48.254;11.454;2024-03-29T15:34:12;0.60;;;0.40;;
32812;SDS011;19162;48.254;11.454;2024-03-29T15:37:12;0.50;;;0.23;;
32812;SDS011;19162;48.254;11.454;2024-03-29T15:40:12;1.27;;;0.40;;
32812;SDS011;19162;48.254;11.454;2024-03-29T15:43:13;0.90;;;0.60;;
32812;SDS011;19162;48.254;11.454;2024-03-29T15:46:14;1.67;;;0.35;;
32812;SDS011;19162;48.254;11.454;2024-03-29T15:49:14;1.15;;;0.40;;
32812;SDS011;19162;48.254;11.454;2024-03-29T15:52:14;0.93;;;0.67;;
32812;SDS011;19162;48.254;11.454;2024-03-29T15:55:14;1.30;;;0.70;;
32812;SDS011;19162;48.254;11.454;2024-03-29T15:58:15;2.30;;;0.83;;
32812;SDS011;19162;48.254;11.454;2024-03-29T16:01:15;1.63;;;0.68;;
32812;SDS011;19162;48.254;11.454;2024-03-29T16:04:15;5.07;;;0.90;;
32812;SDS011;19162;48.254;11.454;2024-03-29T16:07:15;2.35;;;0.73;;
32812;SDS011;19162;48.254;11.454;2024-03-29T16:10:16;5.47;;;1.40;;
32812;SDS011;19162;48.254;11.454;2024-03-29T16:13:17;6.07;;;1.10;;
32812;SDS011;19162;48.254;11.454;2024-03-29T16:16:17;4.53;;;1.08;;
32812;SDS011;19162;48.254;11.454;2024-03-29T16:19:18;6.03;;;1.70;;
32812;SDS011;19162;48.254;11.454;2024-03-29T16:22:18;7.18;;;1.70;;
32812;SDS011;19162;48.254;11.454;2024-03-29T16:25:18;7.00;;;2.10;;
32812;SDS011;19162;48.254;11.454;2024-03-29T16:28:21;6.28;;;1.88;;
32812;SDS011;19162;48.254;11.454;2024-03-29T16:31:22;4.72;;;2.00;;
32812;SDS011;19162;48.254;11.454;2024-03-29T16:34:22;8.45;;;2.10;;
32812;SDS011;19162;48.254;11.454;2024-03-29T16:37:22;8.23;;;2.63;;
32812;SDS011;19162;48.254;11.454;2024-03-29T16:40:22;6.90;;;2.30;;
32812;SDS011;19162;48.254;11.454;2024-03-29T16:43:23;11.00;;;2.80;;
32812;SDS011;19162;48.254;11.454;2024-03-29T16:46:23;13.70;;;3.37;;
32812;SDS011;19162;48.254;11.454;2024-03-29T16:49:23;14.10;;;3.63;;
32812;SDS011;19162;48.254;11.454;2024-03-29T16:52:25;11.50;;;3.80;;
32812;SDS011;19162;48.254;11.454;2024-03-29T16:55:27;13.35;;;3.75;;
32812;SDS011;19162;48.254;11.454;2024-03-29T16:58:28;13.18;;;3.67;;
32812;SDS011;19162;48.254;11.454;2024-03-29T17:01:28;18.13;;;3.77;;
32812;SDS011;19162;48.254;11.454;2024-03-29T17:04:29;21.30;;;4.07;;
32812;SDS011;19162;48.254;11.454;2024-03-29T17:07:29;20.35;;;4.18;;
32812;SDS011;19162;48.254;11.454;2024-03-29T17:10:29;15.07;;;4.27;;
32812;SDS011;19162;48.254;11.454;2024-03-29T17:13:29;15.82;;;5.15;;
32812;SDS011;19162;48.254;11.454;2024-03-29T17:16:29;18.65;;;5.43;;
32812;SDS011;19162;48.254;11.454;2024-03-29T17:19:30;27.90;;;6.63;;
32812;SDS011;19162;48.254;11.454;2024-03-29T17:22:30;30.13;;;11.48;;
32812;SDS011;19162;48.254;11.454;2024-03-29T17:25:30;22.48;;;6.03;;
32812;SDS011;19162;48.254;11.454;2024-03-29T17:28:30;19.83;;;4.97;;
32812;SDS011;19162;48.254;11.454;2024-03-29T17:31:31;23.77;;;6.43;;
32812;SDS011;19162;48.254;11.454;2024-03-29T17:34:34;20.50;;;5.55;;
32812;SDS011;19162;48.254;11.454;2024-03-29T17:37:34;34.80;;;5.93;;
32812;SDS011;19162;48.254;11.454;2024-03-29T17:40:34;23.38;;;6.85;;
32812;SDS011;19162;48.254;11.454;2024-03-29T17:43:35;32.58;;;7.00;;
32812;SDS011;19162;48.254;11.454;2024-03-29T17:46:35;39.78;;;8.05;;
32812;SDS011;19162;48.254;11.454;2024-03-29T17:49:36;33.80;;;8.57;;
32812;SDS011;19162;48.254;11.454;2024-03-29T17:52:36;31.35;;;8.75;;
32812;SDS011;19162;48.254;11.454;2024-03-29T17:55:36;28.05;;;8.40;;